sensor_id;sensor_type;location;lat;lon;timestamp;P1;durP1;ratioP1;P2;durP2;ratioP2
46983;SDS011;34732;52.112;9.366;2023-02-15T09:11:24;11.27;;;3.17;;
46983;SDS011;34732;52.112;9.366;2023-02-15T09:18:50;16.98;;;8.15;;
46983;SDS011;34732;52.112;9.366;2023-02-15T09:22:20;13.32;;;6.70;;
46983;SDS011;34732;52.112;9.366;2023-02-15T09:25:41;8.15;;;5.70;;
46983;SDS011;34732;52.112;9.366;2023-02-15T09:32:24;9.60;;;4.15;;
46983;SDS011;34732;52.112;9.366;2023-02-15T09:35:48;6.63;;;3.60;;
46983;SDS011;34732;52.112;9.366;2023-02-15T09:39:15;4.07;;;3.45;;
46983;SDS011;34732;52.112;9.366;2023-02-15T10:05:10;4.65;;;2.10;;
46983;SDS011;34732;52.112;9.366;2023-02-15T10:16:46;6.10;;;1.63;;
46983;SDS011;34732;52.112;9.366;2023-02-15T10:20:48;3.55;;;1.58;;
46983;SDS011;34732;52.112;9.366;2023-02-15T10:28:18;3.80;;;1.48;;
46983;SDS011;34732;52.112;9.366;2023-02-15T10:42:59;3.75;;;1.58;;
46983;SDS011;34732;52.112;9.366;2023-02-15T10:57:19;2.20;;;1.85;;
46983;SDS011;34732;52.112;9.366;2023-02-15T11:07:52;5.82;;;2.97;;
46983;SDS011;34732;52.112;9.366;2023-02-15T11:11:20;3.88;;;2.95;;
46983;SDS011;34732;52.112;9.366;2023-02-15T11:18:31;4.93;;;2.80;;
46983;SDS011;34732;52.112;9.366;2023-02-15T11:22:05;8.27;;;3.10;;
46983;SDS011;34732;52.112;9.366;2023-02-15T11:25:33;8.18;;;3.17;;
46983;SDS011;34732;52.112;9.366;2023-02-15T11:32:37;7.78;;;3.17;;
46983;SDS011;34732;52.112;9.366;2023-02-15T11:36:11;7.10;;;3.05;;
46983;SDS011;34732;52.112;9.366;2023-02-15T11:39:53;4.70;;;2.90;;
46983;SDS011;34732;52.112;9.366;2023-02-15T11:46:43;4.60;;;3.05;;
46983;SDS011;34732;52.112;9.366;2023-02-15T11:50:19;6.10;;;3.20;;
46983;SDS011;34732;52.112;9.366;2023-02-15T11:53:50;7.97;;;3.40;;
46983;SDS011;34732;52.112;9.366;2023-02-15T11:57:15;6.57;;;3.08;;
46983;SDS011;34732;52.112;9.366;2023-02-15T12:00:39;6.88;;;3.60;;
46983;SDS011;34732;52.112;9.366;2023-02-15T12:04:06;5.00;;;2.92;;
46983;SDS011;34732;52.112;9.366;2023-02-15T12:07:42;5.55;;;2.95;;
46983;SDS011;34732;52.112;9.366;2023-02-15T12:11:09;14.27;;;6.25;;
46983;SDS011;34732;52.112;9.366;2023-02-15T12:14:46;13.60;;;6.57;;
46983;SDS011;34732;52.112;9.366;2023-02-15T12:18:19;11.55;;;6.68;;
46983;SDS011;34732;52.112;9.366;2023-02-15T12:21:49;16.13;;;6.93;;
46983;SDS011;34732;52.112;9.366;2023-02-15T12:28:53;10.60;;;6.18;;
46983;SDS011;34732;52.112;9.366;2023-02-15T12:32:25;13.98;;;7.00;;
46983;SDS011;34732;52.112;9.366;2023-02-15T12:36:00;11.38;;;6.30;;
46983;SDS011;34732;52.112;9.366;2023-02-15T12:39:35;16.63;;;7.00;;
46983;SDS011;34732;52.112;9.366;2023-02-15T12:42:59;16.58;;;6.60;;
46983;SDS011;34732;52.112;9.366;2023-02-15T12:46:31;13.45;;;6.10;;
46983;SDS011;34732;52.112;9.366;2023-02-15T12:50:12;14.93;;;6.47;;
46983;SDS011;34732;52.112;9.366;2023-02-15T12:53:38;12.10;;;5.97;;
46983;SDS011;34732;52.112;9.366;2023-02-15T13:00:46;10.20;;;5.20;;
46983;SDS011;34732;52.112;9.366;2023-02-15T13:04:20;13.10;;;6.38;;
46983;SDS011;34732;52.112;9.366;2023-02-15T13:07:50;9.68;;;5.30;;
46983;SDS011;34732;52.112;9.366;2023-02-15T13:11:15;10.88;;;6.00;;
46983;SDS011;34732;52.112;9.366;2023-02-15T13:14:44;11.88;;;6.22;;
46983;SDS011;34732;52.112;9.366;2023-02-15T13:18:12;9.63;;;5.22;;
46983;SDS011;34732;52.112;9.366;2023-02-15T13:21:46;9.38;;;5.15;;
46983;SDS011;34732;52.112;9.366;2023-02-15T13:25:22;9.65;;;5.38;;
46983;SDS011;34732;52.112;9.366;2023-02-15T13:32:48;11.15;;;4.72;;
46983;SDS011;34732;52.112;9.366;2023-02-15T13:37:12;9.75;;;5.13;;
46983;SDS011;34732;52.112;9.366;2023-02-15T13:54:33;8.73;;;4.88;;
46983;SDS011;34732;52.112;9.366;2023-02-15T14:28:20;8.52;;;4.10;;
46983;SDS011;34732;52.112;9.366;2023-02-15T14:31:53;6.53;;;3.75;;
46983;SDS011;34732;52.112;9.366;2023-02-15T14:35:20;8.23;;;4.65;;
46983;SDS011;34732;52.112;9.366;2023-02-15T14:38:54;6.50;;;3.97;;
46983;SDS011;34732;52.112;9.366;2023-02-15T14:42:57;6.32;;;4.07;;
46983;SDS011;34732;52.112;9.366;2023-02-15T14:50:41;5.25;;;3.55;;
46983;SDS011;34732;52.112;9.366;2023-02-15T14:54:52;8.13;;;3.88;;
46983;SDS011;34732;52.112;9.366;2023-02-15T14:57:55;8.77;;;4.10;;
46983;SDS011;34732;52.112;9.366;2023-02-15T15:08:48;5.00;;;3.47;;
46983;SDS011;34732;52.112;9.366;2023-02-15T15:15:50;4.53;;;3.35;;
46983;SDS011;34732;52.112;9.366;2023-02-15T15:26:41;5.85;;;2.72;;
46983;SDS011;34732;52.112;9.366;2023-02-15T15:37:51;5.78;;;3.53;;
46983;SDS011;34732;52.112;9.366;2023-02-15T15:49:23;5.18;;;2.83;;
46983;SDS011;34732;52.112;9.366;2023-02-15T15:53:00;6.70;;;3.15;;
46983;SDS011;34732;52.112;9.366;2023-02-15T15:56:29;4.38;;;2.70;;
46983;SDS011;34732;52.112;9.366;2023-02-15T16:03:58;4.57;;;2.80;;
46983;SDS011;34732;52.112;9.366;2023-02-15T16:07:34;4.38;;;2.70;;
46983;SDS011;34732;52.112;9.366;2023-02-15T16:11:00;5.05;;;2.83;;
46983;SDS011;34732;52.112;9.366;2023-02-15T16:14:46;4.43;;;2.83;;
46983;SDS011;34732;52.112;9.366;2023-02-15T16:18:15;5.68;;;2.90;;
46983;SDS011;34732;52.112;9.366;2023-02-15T16:21:42;5.28;;;2.53;;
46983;SDS011;34732;52.112;9.366;2023-02-15T16:29:14;5.80;;;2.60;;
46983;SDS011;34732;52.112;9.366;2023-02-15T16:32:38;4.95;;;2.55;;
46983;SDS011;34732;52.112;9.366;2023-02-15T16:36:04;4.25;;;2.22;;
46983;SDS011;34732;52.112;9.366;2023-02-15T16:39:31;4.38;;;2.80;;
46983;SDS011;34732;52.112;9.366;2023-02-15T16:43:14;3.53;;;2.30;;
46983;SDS011;34732;52.112;9.366;2023-02-15T16:46:40;3.58;;;2.38;;
46983;SDS011;34732;52.112;9.366;2023-02-15T16:50:10;4.22;;;2.20;;
46983;SDS011;34732;52.112;9.366;2023-02-15T16:53:45;4.35;;;2.22;;
46983;SDS011;34732;52.112;9.366;2023-02-15T16:57:21;3.65;;;1.85;;
46983;SDS011;34732;52.112;9.366;2023-02-15T17:00:47;2.97;;;2.13;;
46983;SDS011;34732;52.112;9.366;2023-02-15T17:04:12;3.78;;;2.40;;
46983;SDS011;34732;52.112;9.366;2023-02-15T17:07:43;3.22;;;1.98;;
46983;SDS011;34732;52.112;9.366;2023-02-15T17:14:41;4.40;;;2.75;;
46983;SDS011;34732;52.112;9.366;2023-02-15T17:18:14;3.50;;;2.10;;
46983;SDS011;34732;52.112;9.366;2023-02-15T17:21:46;4.68;;;2.30;;
46983;SDS011;34732;52.112;9.366;2023-02-15T17:25:19;4.37;;;2.47;;
46983;SDS011;34732;52.112;9.366;2023-02-15T17:29:10;3.17;;;2.05;;
46983;SDS011;34732;52.112;9.366;2023-02-15T17:32:32;2.53;;;1.85;;
46983;SDS011;34732;52.112;9.366;2023-02-15T17:36:03;3.10;;;1.80;;
46983;SDS011;34732;52.112;9.366;2023-02-15T17:39:32;4.18;;;2.35;;
46983;SDS011;34732;52.112;9.366;2023-02-15T17:42:58;3.92;;;2.13;;
46983;SDS011;34732;52.112;9.366;2023-02-15T17:46:24;3.22;;;1.80;;
46983;SDS011;34732;52.112;9.366;2023-02-15T17:49:48;2.85;;;1.83;;
46983;SDS011;34732;52.112;9.366;2023-02-15T17:57:00;2.03;;;1.52;;
46983;SDS011;34732;52.112;9.366;2023-02-15T18:00:28;3.92;;;2.28;;
46983;SDS011;34732;52.112;9.366;2023-02-15T18:04:21;3.83;;;2.05;;
46983;SDS011;34732;52.112;9.366;2023-02-15T18:08:14;2.60;;;1.55;;
46983;SDS011;34732;52.112;9.366;2023-02-15T18:12:20;3.33;;;1.92;;
46983;SDS011;34732;52.112;9.366;2023-02-15T18:15:46;2.72;;;1.63;;
46983;SDS011;34732;52.112;9.366;2023-02-15T18:19:13;2.55;;;1.42;;
46983;SDS011;34732;52.112;9.366;2023-02-15T18:22:36;3.00;;;1.63;;
46983;SDS011;34732;52.112;9.366;2023-02-15T18:25:59;3.67;;;1.70;;
46983;SDS011;34732;52.112;9.366;2023-02-15T18:29:25;2.40;;;1.60;;
46983;SDS011;34732;52.112;9.366;2023-02-15T18:32:54;6.25;;;1.90;;
46983;SDS011;34732;52.112;9.366;2023-02-15T18:36:51;2.78;;;1.55;;
46983;SDS011;34732;52.112;9.366;2023-02-15T18:40:16;2.13;;;1.48;;
46983;SDS011;34732;52.112;9.366;2023-02-15T18:43:42;3.05;;;1.50;;
46983;SDS011;34732;52.112;9.366;2023-02-15T18:47:06;3.03;;;1.55;;
46983;SDS011;34732;52.112;9.366;2023-02-15T18:50:33;4.07;;;1.90;;
46983;SDS011;34732;52.112;9.366;2023-02-15T18:53:59;2.60;;;1.65;;
46983;SDS011;34732;52.112;9.366;2023-02-15T19:01:31;2.78;;;1.48;;
46983;SDS011;34732;52.112;9.366;2023-02-15T19:04:56;2.55;;;1.50;;
46983;SDS011;34732;52.112;9.366;2023-02-15T19:08:18;5.05;;;1.70;;
46983;SDS011;34732;52.112;9.366;2023-02-15T19:11:52;5.97;;;2.10;;
46983;SDS011;34732;52.112;9.366;2023-02-15T19:15:15;4.05;;;1.67;;
46983;SDS011;34732;52.112;9.366;2023-02-15T19:18:46;2.38;;;1.50;;
46983;SDS011;34732;52.112;9.366;2023-02-15T19:25:44;6.85;;;1.80;;
46983;SDS011;34732;52.112;9.366;2023-02-15T19:29:06;9.43;;;1.90;;
46983;SDS011;34732;52.112;9.366;2023-02-15T19:32:32;19.73;;;10.60;;
46983;SDS011;34732;52.112;9.366;2023-02-15T19:35:53;18.70;;;13.85;;
46983;SDS011;34732;52.112;9.366;2023-02-15T19:39:23;14.75;;;12.52;;
46983;SDS011;34732;52.112;9.366;2023-02-15T19:46:28;16.17;;;13.43;;
46983;SDS011;34732;52.112;9.366;2023-02-15T19:49:52;11.98;;;10.45;;
46983;SDS011;34732;52.112;9.366;2023-02-15T19:56:41;11.45;;;8.10;;
46983;SDS011;34732;52.112;9.366;2023-02-15T20:00:07;9.63;;;7.32;;
46983;SDS011;34732;52.112;9.366;2023-02-15T20:03:40;8.00;;;6.65;;
46983;SDS011;34732;52.112;9.366;2023-02-15T20:07:03;6.70;;;5.63;;
46983;SDS011;34732;52.112;9.366;2023-02-15T20:10:37;7.30;;;4.68;;
